createdAt,value
2019-02-27T00:01:16.760Z,3.80
2019-02-27T00:03:44.807Z,3.84
2019-02-27T00:06:15.872Z,3.91
2019-02-27T00:08:45.702Z,3.92
2019-02-27T00:11:15.333Z,3.97
2019-02-27T00:13:44.889Z,4.02
2019-02-27T00:16:14.434Z,4.07
2019-02-27T00:18:44.010Z,4.12
2019-02-27T00:21:13.537Z,4.15
2019-02-27T00:23:43.048Z,4.19
2019-02-27T00:26:12.644Z,4.20
2019-02-27T00:28:42.283Z,4.26
2019-02-27T00:31:12.086Z,4.32
2019-02-27T00:33:41.661Z,4.33
2019-02-27T00:36:12.288Z,4.38
2019-02-27T00:38:42.458Z,4.40
2019-02-27T00:41:12.955Z,4.40
2019-02-27T00:43:42.674Z,4.42
2019-02-27T00:46:13.341Z,4.46
2019-02-27T00:48:43.568Z,4.47
2019-02-27T00:51:13.163Z,4.48
2019-02-27T00:53:42.718Z,4.47
2019-02-27T00:56:12.896Z,4.52
2019-02-27T00:58:42.666Z,4.57
2019-02-27T01:01:12.600Z,4.59
2019-02-27T01:03:42.868Z,4.57
2019-02-27T01:06:14.828Z,4.55
2019-02-27T01:08:43.714Z,4.56
2019-02-27T01:11:13.272Z,4.55
2019-02-27T01:13:42.830Z,4.57
2019-02-27T01:16:16.942Z,4.55
2019-02-27T01:18:43.768Z,4.57
2019-02-27T01:21:13.307Z,4.56
2019-02-27T01:23:44.691Z,4.60
2019-02-27T01:26:15.367Z,4.63
2019-02-27T01:28:45.626Z,4.65
2019-02-27T01:31:15.184Z,4.66
2019-02-27T01:33:44.743Z,4.69
2019-02-27T01:36:14.362Z,4.71
2019-02-27T01:38:43.986Z,4.74
2019-02-27T01:41:13.635Z,4.74
2019-02-27T01:43:43.187Z,4.75
2019-02-27T01:46:12.705Z,4.75
2019-02-27T01:48:43.641Z,4.76
2019-02-27T01:51:13.397Z,4.76
2019-02-27T01:53:42.990Z,4.73
2019-02-27T01:56:12.557Z,4.71
2019-02-27T01:58:44.116Z,4.68
2019-02-27T02:01:13.357Z,4.65
2019-02-27T02:03:47.212Z,4.66
2019-02-27T02:06:14.176Z,4.64
2019-02-27T02:08:48.018Z,4.65
2019-02-27T02:11:15.037Z,4.65
2019-02-27T02:14:22.727Z,4.67
2019-02-27T02:17:12.561Z,4.61
2019-02-27T02:20:30.589Z,4.64
2019-02-27T02:23:27.007Z,4.65
2019-02-27T02:26:28.393Z,4.63
2019-02-27T02:29:33.743Z,4.63
2019-02-27T02:32:22.501Z,4.62
2019-02-27T02:35:15.803Z,4.57
2019-02-27T02:38:35.494Z,4.57
2019-02-27T02:41:43.596Z,4.56
2019-02-27T02:44:40.193Z,4.53
2019-02-27T02:47:40.926Z,4.53
2019-02-27T02:50:33.147Z,4.52
2019-02-27T02:54:01.736Z,4.46
2019-02-27T02:57:20.311Z,4.45
2019-02-27T03:00:20.191Z,4.41
2019-02-27T03:03:36.200Z,4.30
2019-02-27T03:06:40.941Z,4.17
2019-02-27T03:09:32.483Z,4.13
2019-02-27T03:12:35.107Z,4.04
2019-02-27T03:15:31.229Z,3.97
2019-02-27T03:18:15.115Z,3.95
2019-02-27T03:20:52.313Z,3.89
2019-02-27T03:24:07.303Z,3.80
2019-02-27T03:27:14.567Z,3.69
2019-02-27T03:30:34.031Z,3.64
2019-02-27T03:33:43.497Z,3.59
2019-02-27T03:36:42.842Z,3.63
2019-02-27T03:39:35.934Z,3.57
2019-02-27T03:42:52.330Z,3.61
2019-02-27T03:46:09.259Z,3.61
2019-02-27T03:49:05.004Z,3.62
2019-02-27T03:52:23.283Z,3.68
2019-02-27T03:55:50.184Z,3.73
2019-02-27T03:58:53.811Z,3.76
2019-02-27T04:01:36.529Z,3.80
2019-02-27T04:04:51.784Z,3.85
2019-02-27T04:08:08.610Z,3.89
2019-02-27T04:10:35.533Z,3.92
2019-02-27T04:13:05.071Z,3.96
2019-02-27T04:15:35.769Z,3.97
2019-02-27T04:18:03.548Z,4.01
2019-02-27T04:20:33.119Z,4.06
2019-02-27T04:23:03.096Z,4.09
2019-02-27T04:25:32.697Z,4.10
2019-02-27T04:28:02.272Z,4.13
2019-02-27T04:30:31.837Z,4.15
2019-02-27T04:33:01.415Z,4.11
2019-02-27T04:35:30.968Z,4.15
2019-02-27T04:38:00.602Z,4.11
2019-02-27T04:40:30.219Z,4.06
2019-02-27T04:42:59.965Z,4.03
2019-02-27T04:45:29.573Z,4.01
2019-02-27T04:47:59.212Z,4.01
2019-02-27T04:50:28.850Z,4.02
2019-02-27T04:52:58.664Z,4.07
2019-02-27T04:55:28.226Z,4.09
2019-02-27T04:57:57.900Z,4.12
2019-02-27T05:00:27.480Z,4.14
2019-02-27T05:02:57.025Z,4.18
2019-02-27T05:05:26.589Z,4.20
2019-02-27T05:07:56.232Z,4.29
2019-02-27T05:10:25.828Z,4.36
2019-02-27T05:12:55.387Z,4.39
2019-02-27T05:15:24.957Z,4.46
2019-02-27T05:17:55.664Z,4.46
2019-02-27T05:20:25.955Z,4.50
2019-02-27T05:23:00.121Z,4.55
2019-02-27T05:25:26.834Z,4.58
2019-02-27T05:27:56.374Z,4.61
2019-02-27T05:30:25.953Z,4.69
2019-02-27T05:32:55.519Z,4.71
2019-02-27T05:35:25.196Z,4.78
2019-02-27T05:37:54.789Z,4.80
2019-02-27T05:40:25.933Z,4.78
2019-02-27T05:42:55.622Z,4.82
2019-02-27T05:45:25.188Z,4.85
2019-02-27T05:47:54.710Z,4.89
2019-02-27T05:50:24.256Z,4.85
2019-02-27T05:52:53.811Z,4.86
2019-02-27T05:55:23.431Z,4.86
2019-02-27T05:57:52.984Z,4.83
2019-02-27T06:00:22.629Z,4.82
2019-02-27T06:02:52.215Z,4.84
2019-02-27T06:05:21.817Z,4.80
2019-02-27T06:07:51.456Z,4.82
2019-02-27T06:10:23.427Z,4.84
2019-02-27T06:12:52.518Z,4.79
2019-02-27T06:15:22.127Z,4.70
2019-02-27T06:17:51.811Z,4.73
2019-02-27T06:20:21.447Z,4.73
2019-02-27T06:22:51.018Z,4.72
2019-02-27T06:25:23.350Z,4.61
2019-02-27T06:27:51.950Z,4.60
2019-02-27T06:30:21.689Z,4.61
2019-02-27T06:32:51.250Z,4.68
2019-02-27T06:35:20.829Z,4.69
2019-02-27T06:37:51.329Z,4.68
2019-02-27T06:40:21.114Z,4.68
2019-02-27T06:42:53.401Z,4.63
2019-02-27T06:45:22.058Z,4.69
2019-02-27T06:47:51.688Z,4.66
2019-02-27T06:50:25.235Z,4.66
2019-02-27T06:52:52.515Z,4.71
2019-02-27T06:55:22.138Z,4.73
2019-02-27T06:57:51.710Z,4.72
2019-02-27T07:00:21.341Z,4.69
2019-02-27T07:02:55.260Z,4.69
2019-02-27T07:05:22.204Z,4.69
2019-02-27T07:07:51.905Z,4.72
2019-02-27T07:10:21.544Z,4.74
2019-02-27T07:12:54.415Z,4.78
2019-02-27T07:15:22.516Z,4.84
2019-02-27T07:17:52.158Z,4.95
2019-02-27T07:20:24.542Z,5.01
2019-02-27T07:22:53.050Z,5.07
2019-02-27T07:25:22.590Z,5.18
2019-02-27T07:27:52.166Z,5.27
2019-02-27T07:30:23.732Z,5.34
2019-02-27T07:32:53.039Z,5.45
2019-02-27T07:35:25.490Z,5.46
2019-02-27T07:37:53.969Z,5.49
2019-02-27T07:40:23.587Z,5.61
2019-02-27T07:42:53.119Z,5.72
2019-02-27T07:45:22.965Z,5.81
2019-02-27T07:47:52.590Z,5.79
2019-02-27T07:50:22.171Z,5.79
2019-02-27T07:52:52.216Z,5.83
2019-02-27T07:55:23.642Z,5.88
2019-02-27T07:57:58.308Z,5.89
2019-02-27T08:00:26.414Z,5.94
2019-02-27T08:02:56.144Z,6.00
2019-02-27T08:05:28.492Z,6.04
2019-02-27T08:07:57.065Z,5.98
2019-02-27T08:10:28.083Z,6.03
2019-02-27T08:12:57.768Z,6.10
2019-02-27T08:15:27.330Z,6.13
2019-02-27T08:17:58.081Z,6.07
2019-02-27T08:20:28.192Z,6.08
2019-02-27T08:22:59.943Z,6.13
2019-02-27T08:25:29.617Z,6.23
2019-02-27T08:27:59.150Z,6.44
2019-02-27T08:30:28.807Z,6.58
2019-02-27T08:32:58.389Z,6.83
2019-02-27T08:35:27.955Z,7.13
2019-02-27T08:38:02.657Z,7.33
2019-02-27T08:40:28.841Z,7.35
2019-02-27T08:42:58.430Z,7.40
2019-02-27T08:45:28.115Z,7.42
2019-02-27T08:47:57.735Z,7.52
2019-02-27T08:50:29.200Z,7.57
2019-02-27T08:53:00.142Z,7.75
2019-02-27T08:55:29.823Z,8.05
2019-02-27T08:57:59.356Z,8.40
2019-02-27T09:00:29.485Z,8.66
2019-02-27T09:03:02.448Z,8.99
2019-02-27T09:05:30.498Z,9.21
2019-02-27T09:08:00.182Z,9.61
2019-02-27T09:10:30.796Z,9.79
2019-02-27T09:13:05.523Z,10.37
2019-02-27T09:15:31.916Z,10.69
2019-02-27T09:18:01.915Z,10.68
2019-02-27T09:20:32.017Z,10.82
2019-02-27T09:23:01.554Z,10.74
2019-02-27T09:25:31.162Z,10.35
2019-02-27T09:28:00.759Z,10.23
2019-02-27T09:30:30.354Z,10.19
2019-02-27T09:32:59.906Z,10.16
2019-02-27T09:35:32.216Z,10.40
2019-02-27T09:38:00.922Z,10.49
2019-02-27T09:40:30.606Z,10.55
2019-02-27T09:43:00.273Z,10.63
2019-02-27T09:45:31.314Z,11.23
2019-02-27T09:48:01.251Z,11.48
2019-02-27T09:50:36.160Z,11.92
2019-02-27T09:53:05.715Z,12.11
2019-02-27T09:55:35.315Z,11.76
2019-02-27T09:58:09.902Z,11.03
2019-02-27T10:00:47.278Z,10.76
2019-02-27T10:03:20.213Z,10.48
2019-02-27T10:05:48.362Z,10.15
2019-02-27T10:08:18.290Z,10.15
2019-02-27T10:10:47.863Z,9.95
2019-02-27T10:13:17.482Z,10.05
2019-02-27T10:15:47.099Z,9.88
2019-02-27T10:18:18.880Z,9.92
2019-02-27T10:20:48.019Z,9.89
2019-02-27T10:23:17.550Z,9.89
2019-02-27T10:25:49.786Z,10.07
2019-02-27T10:28:19.000Z,10.34
2019-02-27T10:30:50.055Z,10.36
2019-02-27T10:33:19.933Z,10.37
2019-02-27T10:35:49.488Z,9.98
2019-02-27T10:38:19.067Z,9.86
2019-02-27T10:40:48.658Z,10.05
2019-02-27T10:43:18.273Z,10.46
2019-02-27T10:45:49.439Z,11.05
2019-02-27T10:48:19.102Z,11.75
2019-02-27T10:50:48.705Z,12.27
2019-02-27T10:53:18.319Z,12.29
2019-02-27T10:55:49.318Z,12.38
2019-02-27T10:58:19.195Z,12.42
2019-02-27T11:00:50.307Z,12.35
2019-02-27T11:03:19.897Z,11.65
2019-02-27T11:05:52.454Z,11.11
2019-02-27T11:08:20.787Z,10.93
2019-02-27T11:10:50.368Z,10.64
2019-02-27T11:13:19.900Z,10.39
2019-02-27T11:15:49.484Z,10.37
2019-02-27T11:18:19.068Z,10.40
2019-02-27T11:20:48.608Z,10.51
2019-02-27T11:23:18.367Z,10.40
2019-02-27T11:25:48.016Z,10.42
2019-02-27T11:28:17.679Z,10.26
2019-02-27T11:30:47.277Z,10.16
2019-02-27T11:33:25.713Z,10.27
2019-02-27T11:35:48.222Z,10.34
2019-02-27T11:38:17.897Z,10.51
2019-02-27T11:40:47.437Z,10.37
2019-02-27T11:43:17.272Z,10.28
2019-02-27T11:45:46.907Z,10.32
2019-02-27T11:48:16.457Z,10.27
2019-02-27T11:50:45.991Z,10.41
2019-02-27T11:53:15.605Z,10.48
2019-02-27T11:55:47.098Z,10.61
2019-02-27T11:58:16.534Z,10.81
2019-02-27T12:00:46.079Z,10.93
2019-02-27T12:03:15.621Z,10.99
2019-02-27T12:05:45.335Z,10.84
2019-02-27T12:08:14.897Z,10.69
2019-02-27T12:10:44.443Z,10.75
2019-02-27T12:13:14.006Z,11.11
2019-02-27T12:15:44.271Z,11.19
2019-02-27T12:18:13.795Z,11.18
2019-02-27T12:20:43.387Z,11.79
2019-02-27T12:23:12.937Z,12.41
2019-02-27T12:25:42.908Z,13.18
2019-02-27T12:28:12.451Z,12.63
2019-02-27T12:30:42.124Z,12.58
2019-02-27T12:33:11.755Z,12.04
2019-02-27T12:35:44.169Z,11.99
2019-02-27T12:38:12.683Z,11.62
2019-02-27T12:40:42.536Z,11.33
2019-02-27T12:43:17.247Z,11.21
2019-02-27T12:45:43.481Z,10.66
2019-02-27T12:48:13.391Z,10.34
2019-02-27T12:50:43.030Z,10.48
2019-02-27T12:53:12.687Z,10.65
2019-02-27T12:55:42.288Z,10.75
2019-02-27T12:58:13.423Z,10.79
2019-02-27T13:00:43.284Z,10.65
2019-02-27T13:03:12.857Z,10.39
2019-02-27T13:05:42.469Z,10.31
2019-02-27T13:08:12.155Z,10.24
2019-02-27T13:10:41.691Z,10.28
2019-02-27T13:13:11.288Z,10.46
2019-02-27T13:15:41.705Z,10.50
2019-02-27T13:18:11.526Z,10.55
2019-02-27T13:20:43.025Z,10.73
2019-02-27T13:23:12.486Z,10.85
2019-02-27T13:25:42.032Z,10.49
2019-02-27T13:28:14.643Z,10.28
2019-02-27T13:30:42.913Z,10.26
2019-02-27T13:33:12.550Z,10.28
2019-02-27T13:35:42.101Z,10.11
2019-02-27T13:38:11.865Z,9.80
2019-02-27T13:40:41.444Z,9.58
2019-02-27T13:43:10.993Z,9.49
2019-02-27T13:45:40.570Z,9.26
2019-02-27T13:48:10.225Z,9.27
2019-02-27T13:50:39.890Z,9.33
2019-02-27T13:53:09.593Z,9.31
2019-02-27T13:55:39.214Z,9.28
2019-02-27T13:58:08.840Z,9.22
2019-02-27T14:00:38.634Z,9.15
2019-02-27T14:03:12.110Z,9.00
2019-02-27T14:05:39.498Z,9.02
2019-02-27T14:08:09.090Z,8.93
2019-02-27T14:10:38.670Z,8.87
2019-02-27T14:13:09.756Z,8.93
2019-02-27T14:15:39.562Z,8.85
2019-02-27T14:18:13.465Z,8.85
2019-02-27T14:20:42.389Z,8.81
2019-02-27T14:23:14.547Z,8.71
2019-02-27T14:25:43.345Z,8.58
2019-02-27T14:28:13.067Z,8.45
2019-02-27T14:30:45.155Z,8.49
2019-02-27T14:33:14.706Z,8.46
2019-02-27T14:35:44.454Z,8.34
2019-02-27T14:38:14.007Z,8.31
2019-02-27T14:40:43.618Z,8.25
2019-02-27T14:43:13.236Z,8.03
2019-02-27T14:45:42.795Z,7.82
2019-02-27T14:48:12.460Z,7.71
2019-02-27T14:50:42.038Z,7.62
2019-02-27T14:53:11.614Z,7.57
2019-02-27T14:55:41.206Z,7.47
2019-02-27T14:58:10.758Z,7.40
2019-02-27T15:00:41.199Z,7.37
2019-02-27T15:03:10.930Z,7.35
2019-02-27T15:05:44.752Z,7.35
2019-02-27T15:08:11.826Z,7.40
2019-02-27T15:10:42.502Z,7.51
2019-02-27T15:13:12.216Z,7.64
2019-02-27T15:15:43.762Z,7.73
2019-02-27T15:18:14.036Z,7.78
2019-02-27T15:20:43.697Z,7.77
2019-02-27T15:23:13.276Z,7.81
2019-02-27T15:25:43.415Z,7.80
2019-02-27T15:28:13.155Z,7.85
2019-02-27T15:30:46.344Z,7.88
2019-02-27T15:33:14.137Z,7.84
2019-02-27T15:35:43.709Z,7.85
2019-02-27T15:38:13.319Z,7.82
2019-02-27T15:40:42.943Z,7.81
2019-02-27T15:43:16.952Z,7.74
2019-02-27T15:45:48.058Z,7.69
2019-02-27T15:48:15.249Z,7.60
2019-02-27T15:50:44.819Z,7.55
2019-02-27T15:53:15.161Z,7.49
2019-02-27T15:55:45.499Z,7.47
2019-02-27T15:58:16.730Z,7.43
2019-02-27T16:00:52.341Z,7.42
2019-02-27T16:03:17.902Z,7.41
2019-02-27T16:05:47.497Z,7.39
2019-02-27T16:08:17.173Z,7.37
2019-02-27T16:10:54.568Z,7.36
2019-02-27T16:13:18.174Z,7.31
2019-02-27T16:15:48.541Z,7.26
2019-02-27T16:18:18.817Z,7.22
2019-02-27T16:20:49.985Z,7.18
2019-02-27T16:23:19.694Z,7.12
2019-02-27T16:25:52.832Z,7.09
2019-02-27T16:28:20.709Z,7.07
2019-02-27T16:30:50.291Z,7.01
2019-02-27T16:33:24.026Z,6.96
2019-02-27T16:35:51.199Z,6.87
2019-02-27T16:38:20.884Z,6.82
2019-02-27T16:40:52.615Z,6.73
2019-02-27T16:43:21.984Z,6.66
2019-02-27T16:45:51.564Z,6.56
2019-02-27T16:48:21.159Z,6.45
2019-02-27T16:50:50.698Z,6.35
2019-02-27T16:53:20.280Z,6.26
2019-02-27T16:55:49.821Z,6.16
2019-02-27T16:58:19.450Z,6.06
2019-02-27T17:00:49.014Z,5.97
2019-02-27T17:03:18.569Z,5.81
2019-02-27T17:05:49.711Z,5.71
2019-02-27T17:08:19.463Z,5.65
2019-02-27T17:10:51.759Z,5.64
2019-02-27T17:13:20.417Z,5.69
2019-02-27T17:15:50.161Z,5.70
2019-02-27T17:18:19.732Z,5.73
2019-02-27T17:20:49.329Z,5.85
2019-02-27T17:23:19.200Z,5.91
2019-02-27T17:25:48.769Z,5.96
2019-02-27T17:28:18.307Z,5.98
2019-02-27T17:30:47.991Z,6.00
2019-02-27T17:33:17.557Z,6.01
2019-02-27T17:35:47.127Z,6.00
2019-02-27T17:38:16.768Z,5.95
2019-02-27T17:40:46.410Z,5.91
2019-02-27T17:43:16.114Z,5.89
2019-02-27T17:45:46.939Z,5.86
2019-02-27T17:48:17.067Z,5.84
2019-02-27T17:50:46.623Z,5.82
2019-02-27T17:53:16.168Z,5.76
2019-02-27T17:55:45.712Z,5.75
2019-02-27T17:58:15.295Z,5.72
2019-02-27T18:00:50.091Z,5.69
2019-02-27T18:03:16.712Z,5.66
2019-02-27T18:05:46.273Z,5.65
2019-02-27T18:08:17.060Z,5.63
2019-02-27T18:10:46.830Z,5.67
2019-02-27T18:13:16.422Z,5.73
2019-02-27T18:15:45.993Z,5.75
2019-02-27T18:18:15.562Z,5.77
2019-02-27T18:20:45.119Z,5.76
2019-02-27T18:23:14.696Z,5.80
2019-02-27T18:25:44.392Z,5.76
2019-02-27T18:28:13.918Z,5.81
2019-02-27T18:30:43.504Z,5.83
2019-02-27T18:33:14.261Z,5.86
2019-02-27T18:35:44.565Z,5.88
2019-02-27T18:38:14.113Z,5.86
2019-02-27T18:40:43.749Z,5.88
2019-02-27T18:43:13.358Z,5.90
2019-02-27T18:45:42.965Z,5.88
2019-02-27T18:48:12.618Z,5.90
2019-02-27T18:50:42.207Z,5.92
2019-02-27T18:53:13.475Z,5.92
2019-02-27T18:55:44.102Z,5.92
2019-02-27T18:58:13.841Z,5.91
2019-02-27T19:00:43.365Z,5.90
2019-02-27T19:03:12.966Z,5.90
2019-02-27T19:05:42.625Z,5.90
2019-02-27T19:08:12.201Z,5.89
2019-02-27T19:10:42.723Z,5.94
2019-02-27T19:13:12.409Z,5.97
2019-02-27T19:15:45.513Z,5.97
2019-02-27T19:18:13.430Z,5.93
2019-02-27T19:20:43.026Z,5.93
2019-02-27T19:23:17.146Z,5.90
2019-02-27T19:25:43.916Z,5.84
2019-02-27T19:28:13.475Z,5.77
2019-02-27T19:30:43.071Z,5.75
2019-02-27T19:33:12.728Z,5.76
2019-02-27T19:35:43.012Z,5.76
2019-02-27T19:38:13.735Z,5.78
2019-02-27T19:40:43.462Z,5.78
2019-02-27T19:43:14.214Z,5.77
2019-02-27T19:45:43.828Z,5.74
2019-02-27T19:48:13.741Z,5.72
2019-02-27T19:50:46.259Z,5.69
2019-02-27T19:53:14.597Z,5.58
2019-02-27T19:55:44.158Z,5.44
2019-02-27T19:58:17.178Z,5.40
2019-02-27T20:00:48.445Z,5.33
2019-02-27T20:03:16.653Z,5.34
2019-02-27T20:05:46.276Z,5.34
2019-02-27T20:08:15.818Z,5.29
2019-02-27T20:10:45.519Z,5.28
2019-02-27T20:13:15.125Z,5.21
2019-02-27T20:15:45.763Z,5.17
2019-02-27T20:18:16.078Z,5.18
2019-02-27T20:20:45.608Z,5.18
2019-02-27T20:23:15.286Z,5.19
2019-02-27T20:25:45.118Z,5.21
2019-02-27T20:28:14.697Z,5.21
2019-02-27T20:30:44.306Z,5.21
2019-02-27T20:33:13.864Z,5.20
2019-02-27T20:35:43.622Z,5.22
2019-02-27T20:38:16.009Z,5.21
2019-02-27T20:40:44.682Z,5.20
2019-02-27T20:43:14.321Z,5.18
2019-02-27T20:45:44.102Z,5.16
2019-02-27T20:48:13.847Z,5.11
2019-02-27T20:50:44.622Z,5.06
2019-02-27T20:53:14.236Z,5.03
2019-02-27T20:55:44.071Z,4.99
2019-02-27T20:58:16.743Z,4.96
2019-02-27T21:00:45.013Z,4.96
2019-02-27T21:03:14.568Z,4.92
2019-02-27T21:05:44.181Z,4.89
2019-02-27T21:08:13.926Z,4.87
2019-02-27T21:10:43.574Z,4.85
2019-02-27T21:13:15.963Z,4.83
2019-02-27T21:15:44.518Z,4.83
2019-02-27T21:18:14.201Z,4.84
2019-02-27T21:20:45.208Z,4.76
2019-02-27T21:23:15.193Z,4.73
2019-02-27T21:25:48.726Z,4.73
2019-02-27T21:28:20.867Z,4.74
2019-02-27T21:30:51.835Z,4.71
2019-02-27T21:33:18.724Z,4.62
2019-02-27T21:35:48.335Z,4.55
2019-02-27T21:38:17.896Z,4.49
2019-02-27T21:40:47.462Z,4.47
2019-02-27T21:43:16.995Z,4.49
2019-02-27T21:45:46.742Z,4.53
2019-02-27T21:48:16.313Z,4.55
2019-02-27T21:50:45.854Z,4.55
2019-02-27T21:53:15.456Z,4.56
2019-02-27T21:55:45.498Z,4.58
2019-02-27T21:58:20.292Z,4.57
2019-02-27T22:00:48.191Z,4.59
2019-02-27T22:03:17.909Z,4.57
2019-02-27T22:05:52.548Z,4.57
2019-02-27T22:08:19.234Z,4.56
2019-02-27T22:10:53.302Z,4.51
2019-02-27T22:13:28.889Z,4.41
2019-02-27T22:15:55.926Z,4.31
2019-02-27T22:18:22.851Z,4.19
2019-02-27T22:20:52.392Z,4.04
2019-02-27T22:23:21.939Z,3.92
2019-02-27T22:25:51.499Z,3.78
2019-02-27T22:28:21.060Z,3.61
2019-02-27T22:30:50.599Z,3.45
2019-02-27T22:33:22.953Z,3.23
2019-02-27T22:35:51.493Z,3.11
2019-02-27T22:38:25.558Z,3.04
2019-02-27T22:40:52.342Z,2.89
2019-02-27T22:43:22.807Z,2.80
2019-02-27T22:45:52.466Z,2.65
2019-02-27T22:48:22.024Z,2.66
2019-02-27T22:50:51.594Z,2.59
2019-02-27T22:53:21.136Z,2.52
2019-02-27T22:55:50.790Z,2.41
2019-02-27T22:58:20.359Z,2.32
2019-02-27T23:01:16.526Z,2.22
2019-02-27T23:03:51.661Z,2.13
2019-02-27T23:06:21.201Z,1.98
2019-02-27T23:08:50.781Z,1.93
2019-02-27T23:11:20.385Z,1.84
2019-02-27T23:13:49.970Z,1.82
2019-02-27T23:16:20.489Z,1.73
2019-02-27T23:18:50.055Z,1.69
2019-02-27T23:21:19.742Z,1.63
2019-02-27T23:23:49.284Z,1.56
2019-02-27T23:26:20.159Z,1.45
2019-02-27T23:28:50.266Z,1.38
2019-02-27T23:31:23.302Z,1.26
2019-02-27T23:33:51.264Z,1.21
2019-02-27T23:36:22.040Z,1.15
2019-02-27T23:38:52.173Z,1.11
2019-02-27T23:41:23.203Z,1.08
2019-02-27T23:43:53.041Z,1.05
2019-02-27T23:46:22.599Z,0.97
2019-02-27T23:48:52.258Z,0.92
2019-02-27T23:51:21.829Z,0.91
2019-02-27T23:53:51.458Z,0.91
2019-02-27T23:56:21.068Z,0.87
2019-02-27T23:58:50.688Z,0.84
